sensor_id;sensor_type;location;lat;lon;timestamp;pressure;altitude;pressure_sealevel;temperature;humidity
43480;BME280;29067;35.492;-97.520;2022-08-21T00:01:45;97053.30;;;33.61;27.47
43480;BME280;29067;35.492;-97.520;2022-08-21T00:04:14;97055.16;;;34.38;27.13
43480;BME280;29067;35.492;-97.520;2022-08-21T00:06:42;97054.88;;;34.79;26.95
43480;BME280;29067;35.492;-97.520;2022-08-21T00:09:10;97055.21;;;33.35;27.62
43480;BME280;29067;35.492;-97.520;2022-08-21T00:11:39;97060.04;;;34.93;27.18
43480;BME280;29067;35.492;-97.520;2022-08-21T00:14:09;97062.37;;;34.58;27.10
43480;BME280;29067;35.492;-97.520;2022-08-21T00:16:37;97061.43;;;33.78;27.46
43480;BME280;29067;35.492;-97.520;2022-08-21T00:19:05;97059.66;;;34.28;27.84
43480;BME280;29067;35.492;-97.520;2022-08-21T00:21:35;97059.73;;;34.32;27.63
43480;BME280;29067;35.492;-97.520;2022-08-21T00:24:04;97062.04;;;35.15;26.94
43480;BME280;29067;35.492;-97.520;2022-08-21T00:26:32;97061.35;;;35.38;26.84
43480;BME280;29067;35.492;-97.520;2022-08-21T00:29:00;97063.28;;;34.81;27.12
43480;BME280;29067;35.492;-97.520;2022-08-21T00:31:27;97063.69;;;34.08;27.70
43480;BME280;29067;35.492;-97.520;2022-08-21T00:33:56;97063.74;;;34.68;27.17
43480;BME280;29067;35.492;-97.520;2022-08-21T00:36:24;97062.55;;;34.32;27.65
43480;BME280;29067;35.492;-97.520;2022-08-21T00:38:52;97062.79;;;33.44;28.04
43480;BME280;29067;35.492;-97.520;2022-08-21T00:41:21;97065.36;;;34.89;27.62
43480;BME280;29067;35.492;-97.520;2022-08-21T00:43:49;97066.65;;;33.34;28.12
43480;BME280;29067;35.492;-97.520;2022-08-21T00:46:17;97065.19;;;33.47;28.29
43480;BME280;29067;35.492;-97.520;2022-08-21T00:48:45;97067.92;;;33.17;28.42
43480;BME280;29067;35.492;-97.520;2022-08-21T00:51:17;97067.67;;;33.90;27.71
43480;BME280;29067;35.492;-97.520;2022-08-21T00:53:46;97084.43;;;33.09;28.30
43480;BME280;29067;35.492;-97.520;2022-08-21T00:56:15;97136.00;;;32.60;28.75
43480;BME280;29067;35.492;-97.520;2022-08-21T00:58:43;97150.41;;;28.95;32.59
43480;BME280;29067;35.492;-97.520;2022-08-21T01:01:13;97151.91;;;28.94;33.27
43480;BME280;29067;35.492;-97.520;2022-08-21T01:03:41;97155.02;;;29.21;34.00
43480;BME280;29067;35.492;-97.520;2022-08-21T01:06:10;97161.72;;;27.15;36.52
43480;BME280;29067;35.492;-97.520;2022-08-21T01:08:38;97172.76;;;25.84;38.16
43480;BME280;29067;35.492;-97.520;2022-08-21T01:11:06;97175.92;;;26.92;38.20
43480;BME280;29067;35.492;-97.520;2022-08-21T01:13:36;97181.51;;;26.29;39.12
43480;BME280;29067;35.492;-97.520;2022-08-21T01:16:09;97186.31;;;26.15;39.69
43480;BME280;29067;35.492;-97.520;2022-08-21T01:18:36;97202.47;;;25.90;40.83
43480;BME280;29067;35.492;-97.520;2022-08-21T01:21:08;97217.72;;;24.69;44.96
43480;BME280;29067;35.492;-97.520;2022-08-21T01:23:41;97220.69;;;24.57;48.92
43480;BME280;29067;35.492;-97.520;2022-08-21T01:26:10;97227.26;;;24.02;50.94
43480;BME280;29067;35.492;-97.520;2022-08-21T01:28:42;97228.97;;;23.93;52.09
43480;BME280;29067;35.492;-97.520;2022-08-21T01:31:13;97229.21;;;23.97;52.03
43480;BME280;29067;35.492;-97.520;2022-08-21T01:33:42;97224.58;;;24.14;53.16
43480;BME280;29067;35.492;-97.520;2022-08-21T01:36:10;97227.08;;;24.54;52.44
43480;BME280;29067;35.492;-97.520;2022-08-21T01:38:38;97225.18;;;24.33;53.64
43480;BME280;29067;35.492;-97.520;2022-08-21T01:41:06;97221.22;;;24.19;53.94
43480;BME280;29067;35.492;-97.520;2022-08-21T01:43:34;97218.72;;;24.19;52.46
43480;BME280;29067;35.492;-97.520;2022-08-21T01:46:03;97210.49;;;24.61;51.74
43480;BME280;29067;35.492;-97.520;2022-08-21T01:48:31;97214.42;;;24.17;52.25
43480;BME280;29067;35.492;-97.520;2022-08-21T01:50:59;97210.79;;;25.98;48.89
43480;BME280;29067;35.492;-97.520;2022-08-21T01:53:28;97210.04;;;24.84;49.96
43480;BME280;29067;35.492;-97.520;2022-08-21T01:55:56;97214.72;;;25.05;49.40
43480;BME280;29067;35.492;-97.520;2022-08-21T01:58:24;97214.33;;;25.93;48.08
43480;BME280;29067;35.492;-97.520;2022-08-21T02:00:51;97221.61;;;25.08;47.80
43480;BME280;29067;35.492;-97.520;2022-08-21T02:03:20;97223.84;;;25.72;46.52
43480;BME280;29067;35.492;-97.520;2022-08-21T02:05:47;97224.22;;;25.20;47.14
43480;BME280;29067;35.492;-97.520;2022-08-21T02:08:15;97228.93;;;26.01;46.52
43480;BME280;29067;35.492;-97.520;2022-08-21T02:10:42;97232.30;;;25.35;45.43
43480;BME280;29067;35.492;-97.520;2022-08-21T02:13:10;97233.88;;;24.54;46.10
43480;BME280;29067;35.492;-97.520;2022-08-21T02:15:37;97238.76;;;24.77;47.19
43480;BME280;29067;35.492;-97.520;2022-08-21T02:18:06;97242.51;;;23.95;48.54
43480;BME280;29067;35.492;-97.520;2022-08-21T02:20:36;97241.41;;;25.23;46.80
43480;BME280;29067;35.492;-97.520;2022-08-21T02:23:06;97242.98;;;24.89;47.20
43480;BME280;29067;35.492;-97.520;2022-08-21T02:25:35;97243.33;;;24.05;48.64
43480;BME280;29067;35.492;-97.520;2022-08-21T02:28:06;97243.68;;;24.50;48.63
43480;BME280;29067;35.492;-97.520;2022-08-21T02:30:37;97245.42;;;23.86;49.60
43480;BME280;29067;35.492;-97.520;2022-08-21T02:33:06;97245.25;;;24.39;48.75
43480;BME280;29067;35.492;-97.520;2022-08-21T02:35:35;97252.62;;;25.77;46.77
43480;BME280;29067;35.492;-97.520;2022-08-21T02:38:06;97249.00;;;25.87;45.28
43480;BME280;29067;35.492;-97.520;2022-08-21T02:40:36;97245.23;;;25.10;46.06
43480;BME280;29067;35.492;-97.520;2022-08-21T02:43:06;97242.32;;;25.24;45.94
43480;BME280;29067;35.492;-97.520;2022-08-21T02:45:35;97246.10;;;25.48;46.33
43480;BME280;29067;35.492;-97.520;2022-08-21T02:48:06;97247.28;;;26.03;44.71
43480;BME280;29067;35.492;-97.520;2022-08-21T02:50:38;97255.64;;;25.88;45.81
43480;BME280;29067;35.492;-97.520;2022-08-21T02:53:07;97264.93;;;25.50;46.19
43480;BME280;29067;35.492;-97.520;2022-08-21T02:55:36;97267.75;;;25.39;46.36
43480;BME280;29067;35.492;-97.520;2022-08-21T02:58:06;97266.85;;;25.17;47.04
43480;BME280;29067;35.492;-97.520;2022-08-21T03:00:36;97267.31;;;24.12;48.48
43480;BME280;29067;35.492;-97.520;2022-08-21T03:03:04;97261.84;;;24.88;48.37
43480;BME280;29067;35.492;-97.520;2022-08-21T03:05:34;97260.51;;;25.23;48.11
43480;BME280;29067;35.492;-97.520;2022-08-21T03:08:04;97256.21;;;25.48;48.04
43480;BME280;29067;35.492;-97.520;2022-08-21T03:10:32;97258.30;;;25.05;48.80
43480;BME280;29067;35.492;-97.520;2022-08-21T03:13:00;97252.44;;;24.72;47.46
43480;BME280;29067;35.492;-97.520;2022-08-21T03:15:27;97256.61;;;24.57;47.76
43480;BME280;29067;35.492;-97.520;2022-08-21T03:17:55;97254.95;;;24.91;47.18
43480;BME280;29067;35.492;-97.520;2022-08-21T03:20:25;97252.60;;;25.06;46.78
43480;BME280;29067;35.492;-97.520;2022-08-21T03:22:54;97253.92;;;25.12;46.66
43480;BME280;29067;35.492;-97.520;2022-08-21T03:25:23;97250.45;;;24.47;47.42
43480;BME280;29067;35.492;-97.520;2022-08-21T03:27:51;97244.04;;;24.51;47.24
43480;BME280;29067;35.492;-97.520;2022-08-21T03:30:20;97246.35;;;23.98;49.13
43480;BME280;29067;35.492;-97.520;2022-08-21T03:32:49;97249.72;;;25.37;46.56
43480;BME280;29067;35.492;-97.520;2022-08-21T03:35:18;97258.50;;;24.51;49.32
43480;BME280;29067;35.492;-97.520;2022-08-21T03:37:46;97263.04;;;24.54;48.70
43480;BME280;29067;35.492;-97.520;2022-08-21T03:40:17;97257.39;;;26.11;46.06
43480;BME280;29067;35.492;-97.520;2022-08-21T03:42:46;97254.91;;;26.09;45.13
43480;BME280;29067;35.492;-97.520;2022-08-21T03:45:15;97258.94;;;25.83;45.00
43480;BME280;29067;35.492;-97.520;2022-08-21T03:47:52;97255.66;;;26.04;45.10
43480;BME280;29067;35.492;-97.520;2022-08-21T03:50:20;97247.33;;;26.06;44.18
43480;BME280;29067;35.492;-97.520;2022-08-21T03:52:48;97243.05;;;27.13;42.75
43480;BME280;29067;35.492;-97.520;2022-08-21T03:55:17;97246.87;;;26.72;42.95
43480;BME280;29067;35.492;-97.520;2022-08-21T03:57:45;97247.45;;;27.53;41.80
43480;BME280;29067;35.492;-97.520;2022-08-21T04:00:15;97252.41;;;26.09;42.31
43480;BME280;29067;35.492;-97.520;2022-08-21T04:02:44;97256.48;;;25.94;41.91
43480;BME280;29067;35.492;-97.520;2022-08-21T04:05:13;97256.38;;;28.20;40.42
43480;BME280;29067;35.492;-97.520;2022-08-21T04:07:41;97255.06;;;26.55;41.08
43480;BME280;29067;35.492;-97.520;2022-08-21T04:10:09;97261.34;;;27.59;40.17
43480;BME280;29067;35.492;-97.520;2022-08-21T04:12:37;97273.08;;;27.08;40.18
43480;BME280;29067;35.492;-97.520;2022-08-21T04:15:05;97286.83;;;27.52;39.81
43480;BME280;29067;35.492;-97.520;2022-08-21T04:17:33;97299.53;;;25.84;41.70
43480;BME280;29067;35.492;-97.520;2022-08-21T04:20:00;97296.04;;;27.11;40.47
43480;BME280;29067;35.492;-97.520;2022-08-21T04:22:28;97294.06;;;25.51;42.23
43480;BME280;29067;35.492;-97.520;2022-08-21T04:24:55;97295.35;;;25.20;42.54
43480;BME280;29067;35.492;-97.520;2022-08-21T04:27:23;97296.18;;;25.68;41.82
43480;BME280;29067;35.492;-97.520;2022-08-21T04:29:50;97288.27;;;25.42;42.02
43480;BME280;29067;35.492;-97.520;2022-08-21T04:32:22;97295.11;;;25.63;40.92
43480;BME280;29067;35.492;-97.520;2022-08-21T04:34:50;97295.44;;;24.89;42.22
43480;BME280;29067;35.492;-97.520;2022-08-21T04:37:18;97304.53;;;26.25;41.39
43480;BME280;29067;35.492;-97.520;2022-08-21T04:39:46;97303.57;;;24.87;42.89
43480;BME280;29067;35.492;-97.520;2022-08-21T04:42:13;97300.57;;;25.30;43.44
43480;BME280;29067;35.492;-97.520;2022-08-21T04:44:42;97313.99;;;24.90;44.23
43480;BME280;29067;35.492;-97.520;2022-08-21T04:47:09;97323.94;;;24.18;46.01
43480;BME280;29067;35.492;-97.520;2022-08-21T04:49:37;97325.39;;;24.69;45.48
43480;BME280;29067;35.492;-97.520;2022-08-21T04:52:05;97321.84;;;24.64;45.55
43480;BME280;29067;35.492;-97.520;2022-08-21T04:54:33;97317.25;;;25.87;44.25
43480;BME280;29067;35.492;-97.520;2022-08-21T04:57:06;97321.20;;;25.36;45.97
43480;BME280;29067;35.492;-97.520;2022-08-21T04:59:38;97317.06;;;25.29;44.20
43480;BME280;29067;35.492;-97.520;2022-08-21T05:02:08;97317.27;;;24.98;45.47
43480;BME280;29067;35.492;-97.520;2022-08-21T05:04:41;97308.29;;;25.88;44.01
43480;BME280;29067;35.492;-97.520;2022-08-21T05:07:14;97306.70;;;26.89;43.27
43480;BME280;29067;35.492;-97.520;2022-08-21T05:09:43;97302.50;;;26.19;42.48
43480;BME280;29067;35.492;-97.520;2022-08-21T05:12:11;97309.76;;;25.80;43.45
43480;BME280;29067;35.492;-97.520;2022-08-21T05:14:39;97304.01;;;25.47;43.42
43480;BME280;29067;35.492;-97.520;2022-08-21T05:17:07;97303.95;;;26.60;41.85
43480;BME280;29067;35.492;-97.520;2022-08-21T05:19:35;97298.05;;;26.02;42.72
43480;BME280;29067;35.492;-97.520;2022-08-21T05:22:03;97289.06;;;25.49;43.13
43480;BME280;29067;35.492;-97.520;2022-08-21T05:24:32;97293.66;;;26.87;41.60
43480;BME280;29067;35.492;-97.520;2022-08-21T05:27:00;97293.31;;;25.35;42.46
43480;BME280;29067;35.492;-97.520;2022-08-21T05:29:27;97293.46;;;26.07;42.46
43480;BME280;29067;35.492;-97.520;2022-08-21T05:31:56;97301.30;;;26.62;41.03
43480;BME280;29067;35.492;-97.520;2022-08-21T05:34:24;97304.84;;;25.83;43.31
43480;BME280;29067;35.492;-97.520;2022-08-21T05:36:51;97304.01;;;25.43;43.29
43480;BME280;29067;35.492;-97.520;2022-08-21T05:39:19;97308.18;;;25.01;43.40
43480;BME280;29067;35.492;-97.520;2022-08-21T05:41:47;97309.25;;;24.09;45.57
43480;BME280;29067;35.492;-97.520;2022-08-21T05:44:15;97311.68;;;25.49;43.78
43480;BME280;29067;35.492;-97.520;2022-08-21T05:46:44;97323.04;;;26.67;42.68
43480;BME280;29067;35.492;-97.520;2022-08-21T05:49:11;97326.17;;;26.35;43.04
43480;BME280;29067;35.492;-97.520;2022-08-21T05:51:41;97331.29;;;24.18;45.46
43480;BME280;29067;35.492;-97.520;2022-08-21T05:54:09;97335.82;;;24.71;44.76
43480;BME280;29067;35.492;-97.520;2022-08-21T05:56:36;97339.27;;;24.28;45.41
43480;BME280;29067;35.492;-97.520;2022-08-21T05:59:04;97339.14;;;24.84;44.88
43480;BME280;29067;35.492;-97.520;2022-08-21T06:01:31;97334.48;;;24.38;45.71
43480;BME280;29067;35.492;-97.520;2022-08-21T06:03:59;97330.95;;;25.33;45.39
43480;BME280;29067;35.492;-97.520;2022-08-21T06:06:27;97322.83;;;24.92;45.34
43480;BME280;29067;35.492;-97.520;2022-08-21T06:08:54;97325.82;;;24.07;46.48
43480;BME280;29067;35.492;-97.520;2022-08-21T06:11:22;97325.49;;;24.04;46.69
43480;BME280;29067;35.492;-97.520;2022-08-21T06:13:49;97330.43;;;25.51;45.50
43480;BME280;29067;35.492;-97.520;2022-08-21T06:16:17;97334.73;;;24.15;47.82
43480;BME280;29067;35.492;-97.520;2022-08-21T06:18:45;97342.15;;;25.48;45.03
43480;BME280;29067;35.492;-97.520;2022-08-21T06:21:13;97346.32;;;24.20;47.54
43480;BME280;29067;35.492;-97.520;2022-08-21T06:23:42;97345.94;;;23.74;48.08
43480;BME280;29067;35.492;-97.520;2022-08-21T06:26:12;97334.28;;;23.98;47.89
43480;BME280;29067;35.492;-97.520;2022-08-21T06:28:41;97327.46;;;22.99;48.88
43480;BME280;29067;35.492;-97.520;2022-08-21T06:31:12;97316.23;;;24.23;48.40
43480;BME280;29067;35.492;-97.520;2022-08-21T06:33:42;97312.77;;;22.43;49.49
43480;BME280;29067;35.492;-97.520;2022-08-21T06:36:10;97311.87;;;24.04;47.94
43480;BME280;29067;35.492;-97.520;2022-08-21T06:38:38;97311.28;;;24.91;47.25
43480;BME280;29067;35.492;-97.520;2022-08-21T06:41:07;97310.40;;;23.56;47.77
43480;BME280;29067;35.492;-97.520;2022-08-21T06:43:35;97310.97;;;24.58;46.05
43480;BME280;29067;35.492;-97.520;2022-08-21T06:46:04;97314.60;;;23.49;47.56
43480;BME280;29067;35.492;-97.520;2022-08-21T06:48:31;97317.39;;;24.11;46.71
43480;BME280;29067;35.492;-97.520;2022-08-21T06:51:00;97313.68;;;24.96;45.51
43480;BME280;29067;35.492;-97.520;2022-08-21T06:53:28;97311.94;;;24.71;46.35
43480;BME280;29067;35.492;-97.520;2022-08-21T06:55:56;97306.88;;;24.05;46.46
43480;BME280;29067;35.492;-97.520;2022-08-21T06:58:24;97303.38;;;23.63;47.48
43480;BME280;29067;35.492;-97.520;2022-08-21T07:00:52;97306.81;;;24.21;46.52
43480;BME280;29067;35.492;-97.520;2022-08-21T07:03:21;97309.96;;;23.44;46.86
43480;BME280;29067;35.492;-97.520;2022-08-21T07:05:50;97308.10;;;24.02;45.97
43480;BME280;29067;35.492;-97.520;2022-08-21T07:08:18;97302.09;;;25.04;45.27
43480;BME280;29067;35.492;-97.520;2022-08-21T07:10:47;97295.65;;;24.12;45.43
43480;BME280;29067;35.492;-97.520;2022-08-21T07:13:16;97291.08;;;24.66;45.71
43480;BME280;29067;35.492;-97.520;2022-08-21T07:15:45;97293.22;;;25.23;44.27
43480;BME280;29067;35.492;-97.520;2022-08-21T07:18:13;97302.39;;;25.24;44.37
43480;BME280;29067;35.492;-97.520;2022-08-21T07:20:41;97304.46;;;24.44;45.62
43480;BME280;29067;35.492;-97.520;2022-08-21T07:23:11;97301.31;;;25.06;44.56
43480;BME280;29067;35.492;-97.520;2022-08-21T07:25:39;97295.61;;;23.92;46.30
43480;BME280;29067;35.492;-97.520;2022-08-21T07:28:07;97294.27;;;25.08;43.99
43480;BME280;29067;35.492;-97.520;2022-08-21T07:30:35;97299.68;;;25.37;43.98
43480;BME280;29067;35.492;-97.520;2022-08-21T07:33:02;97299.39;;;25.21;44.90
43480;BME280;29067;35.492;-97.520;2022-08-21T07:35:30;97292.98;;;25.67;44.01
43480;BME280;29067;35.492;-97.520;2022-08-21T07:37:59;97289.24;;;24.18;45.62
43480;BME280;29067;35.492;-97.520;2022-08-21T07:40:26;97289.54;;;25.92;42.95
43480;BME280;29067;35.492;-97.520;2022-08-21T07:42:54;97290.68;;;26.17;43.25
43480;BME280;29067;35.492;-97.520;2022-08-21T07:45:23;97290.80;;;26.49;42.15
43480;BME280;29067;35.492;-97.520;2022-08-21T07:47:51;97291.34;;;26.19;43.00
43480;BME280;29067;35.492;-97.520;2022-08-21T07:50:20;97290.98;;;26.43;43.02
43480;BME280;29067;35.492;-97.520;2022-08-21T07:52:48;97292.49;;;26.20;42.24
43480;BME280;29067;35.492;-97.520;2022-08-21T07:55:17;97290.77;;;25.76;42.24
43480;BME280;29067;35.492;-97.520;2022-08-21T07:57:46;97288.39;;;25.40;42.89
43480;BME280;29067;35.492;-97.520;2022-08-21T08:00:17;97290.34;;;26.47;42.51
43480;BME280;29067;35.492;-97.520;2022-08-21T08:02:47;97285.48;;;25.23;43.09
43480;BME280;29067;35.492;-97.520;2022-08-21T08:05:15;97288.28;;;25.65;43.38
43480;BME280;29067;35.492;-97.520;2022-08-21T08:07:44;97290.88;;;25.90;43.04
43480;BME280;29067;35.492;-97.520;2022-08-21T08:10:12;97296.05;;;25.61;43.78
43480;BME280;29067;35.492;-97.520;2022-08-21T08:12:42;97304.36;;;26.33;42.45
43480;BME280;29067;35.492;-97.520;2022-08-21T08:15:13;97310.11;;;27.81;41.17
43480;BME280;29067;35.492;-97.520;2022-08-21T08:17:42;97313.65;;;27.86;41.08
43480;BME280;29067;35.492;-97.520;2022-08-21T08:20:16;97314.50;;;25.73;42.16
43480;BME280;29067;35.492;-97.520;2022-08-21T08:22:45;97317.66;;;26.22;41.76
43480;BME280;29067;35.492;-97.520;2022-08-21T08:25:14;97322.63;;;27.21;40.62
43480;BME280;29067;35.492;-97.520;2022-08-21T08:27:42;97331.83;;;27.17;41.23
43480;BME280;29067;35.492;-97.520;2022-08-21T08:30:13;97336.48;;;26.43;42.05
43480;BME280;29067;35.492;-97.520;2022-08-21T08:32:42;97341.10;;;26.98;42.05
43480;BME280;29067;35.492;-97.520;2022-08-21T08:35:11;97341.85;;;24.58;43.79
43480;BME280;29067;35.492;-97.520;2022-08-21T08:37:40;97341.88;;;26.32;43.40
43480;BME280;29067;35.492;-97.520;2022-08-21T08:40:11;97344.45;;;27.04;42.05
43480;BME280;29067;35.492;-97.520;2022-08-21T08:42:40;97349.24;;;26.88;42.74
43480;BME280;29067;35.492;-97.520;2022-08-21T08:45:11;97359.53;;;27.35;41.71
43480;BME280;29067;35.492;-97.520;2022-08-21T08:47:43;97365.98;;;26.76;41.69
43480;BME280;29067;35.492;-97.520;2022-08-21T08:50:18;97369.01;;;25.11;43.41
43480;BME280;29067;35.492;-97.520;2022-08-21T08:52:51;97372.69;;;26.16;42.47
43480;BME280;29067;35.492;-97.520;2022-08-21T08:55:26;97376.30;;;27.73;41.27
43480;BME280;29067;35.492;-97.520;2022-08-21T08:57:54;97376.41;;;28.08;41.48
43480;BME280;29067;35.492;-97.520;2022-08-21T09:00:24;97376.50;;;27.31;41.26
43480;BME280;29067;35.492;-97.520;2022-08-21T09:02:55;97379.49;;;27.28;41.17
43480;BME280;29067;35.492;-97.520;2022-08-21T09:05:28;97385.93;;;27.35;41.28
43480;BME280;29067;35.492;-97.520;2022-08-21T09:08:20;97390.49;;;27.51;40.95
43480;BME280;29067;35.492;-97.520;2022-08-21T09:11:00;97396.16;;;27.64;40.96
43480;BME280;29067;35.492;-97.520;2022-08-21T09:13:37;97395.62;;;28.01;40.50
43480;BME280;29067;35.492;-97.520;2022-08-21T09:16:24;97395.64;;;28.01;40.67
43480;BME280;29067;35.492;-97.520;2022-08-21T09:19:01;97395.55;;;27.48;41.16
43480;BME280;29067;35.492;-97.520;2022-08-21T09:21:38;97397.77;;;27.59;40.98
43480;BME280;29067;35.492;-97.520;2022-08-21T09:24:25;97395.05;;;28.21;40.43
43480;BME280;29067;35.492;-97.520;2022-08-21T09:27:04;97398.79;;;27.09;41.09
43480;BME280;29067;35.492;-97.520;2022-08-21T09:29:39;97399.82;;;27.96;40.33
43480;BME280;29067;35.492;-97.520;2022-08-21T09:32:11;97402.72;;;28.17;40.30
43480;BME280;29067;35.492;-97.520;2022-08-21T09:34:42;97408.23;;;27.43;41.25
43480;BME280;29067;35.492;-97.520;2022-08-21T09:37:17;97408.70;;;26.98;41.28
43480;BME280;29067;35.492;-97.520;2022-08-21T09:39:45;97405.98;;;27.52;40.61
43480;BME280;29067;35.492;-97.520;2022-08-21T09:42:22;97403.80;;;28.27;40.02
43480;BME280;29067;35.492;-97.520;2022-08-21T09:45:06;97405.47;;;26.68;41.18
43480;BME280;29067;35.492;-97.520;2022-08-21T09:47:36;97407.56;;;27.25;41.48
43480;BME280;29067;35.492;-97.520;2022-08-21T09:50:15;97407.34;;;26.99;41.45
43480;BME280;29067;35.492;-97.520;2022-08-21T09:52:47;97401.47;;;27.21;41.41
43480;BME280;29067;35.492;-97.520;2022-08-21T09:55:21;97395.53;;;27.55;41.14
43480;BME280;29067;35.492;-97.520;2022-08-21T09:57:50;97386.99;;;26.57;42.12
43480;BME280;29067;35.492;-97.520;2022-08-21T10:00:25;97383.11;;;26.70;42.04
43480;BME280;29067;35.492;-97.520;2022-08-21T10:02:53;97380.07;;;27.20;41.93
43480;BME280;29067;35.492;-97.520;2022-08-21T10:05:25;97379.18;;;26.32;42.92
43480;BME280;29067;35.492;-97.520;2022-08-21T10:07:53;97380.35;;;25.51;43.71
43480;BME280;29067;35.492;-97.520;2022-08-21T10:10:25;97379.45;;;25.58;45.30
43480;BME280;29067;35.492;-97.520;2022-08-21T10:12:57;97374.88;;;25.27;45.54
43480;BME280;29067;35.492;-97.520;2022-08-21T10:15:36;97376.01;;;25.71;46.05
43480;BME280;29067;35.492;-97.520;2022-08-21T10:18:12;97385.06;;;25.77;46.74
43480;BME280;29067;35.492;-97.520;2022-08-21T10:20:46;97386.73;;;25.35;47.28
43480;BME280;29067;35.492;-97.520;2022-08-21T10:23:33;97384.56;;;23.72;51.67
43480;BME280;29067;35.492;-97.520;2022-08-21T10:26:08;97375.96;;;24.59;50.32
43480;BME280;29067;35.492;-97.520;2022-08-21T10:28:46;97377.13;;;24.73;51.34
43480;BME280;29067;35.492;-97.520;2022-08-21T10:31:31;97380.57;;;25.49;50.13
43480;BME280;29067;35.492;-97.520;2022-08-21T10:34:13;97391.41;;;24.85;49.96
43480;BME280;29067;35.492;-97.520;2022-08-21T10:36:55;97395.60;;;24.85;52.82
43480;BME280;29067;35.492;-97.520;2022-08-21T10:39:31;97391.14;;;25.08;51.06
43480;BME280;29067;35.492;-97.520;2022-08-21T10:42:13;97390.06;;;25.32;51.31
43480;BME280;29067;35.492;-97.520;2022-08-21T10:45:02;97389.81;;;25.17;50.18
43480;BME280;29067;35.492;-97.520;2022-08-21T10:47:37;97391.06;;;25.35;50.50
43480;BME280;29067;35.492;-97.520;2022-08-21T10:50:12;97391.66;;;24.76;49.86
43480;BME280;29067;35.492;-97.520;2022-08-21T10:52:56;97400.05;;;24.49;52.53
43480;BME280;29067;35.492;-97.520;2022-08-21T10:55:33;97403.04;;;24.73;53.24
43480;BME280;29067;35.492;-97.520;2022-08-21T10:58:09;97403.48;;;24.75;52.26
43480;BME280;29067;35.492;-97.520;2022-08-21T11:03:04;97412.50;;;23.76;54.61
43480;BME280;29067;35.492;-97.520;2022-08-21T11:05:40;97417.74;;;23.88;54.21
43480;BME280;29067;35.492;-97.520;2022-08-21T11:08:11;97418.36;;;23.92;54.32
43480;BME280;29067;35.492;-97.520;2022-08-21T11:10:44;97419.88;;;24.41;54.43
43480;BME280;29067;35.492;-97.520;2022-08-21T11:13:17;97414.74;;;25.25;52.38
43480;BME280;29067;35.492;-97.520;2022-08-21T11:15:54;97412.90;;;24.61;52.93
43480;BME280;29067;35.492;-97.520;2022-08-21T11:18:29;97412.56;;;24.81;52.08
43480;BME280;29067;35.492;-97.520;2022-08-21T11:21:04;97414.91;;;24.78;53.09
43480;BME280;29067;35.492;-97.520;2022-08-21T11:23:42;97417.62;;;24.73;52.06
43480;BME280;29067;35.492;-97.520;2022-08-21T11:26:15;97416.20;;;25.08;52.08
43480;BME280;29067;35.492;-97.520;2022-08-21T11:28:51;97415.55;;;24.96;50.73
43480;BME280;29067;35.492;-97.520;2022-08-21T11:31:36;97411.77;;;24.81;50.29
43480;BME280;29067;35.492;-97.520;2022-08-21T11:34:20;97405.43;;;24.86;51.95
43480;BME280;29067;35.492;-97.520;2022-08-21T11:37:00;97398.45;;;24.47;51.38
43480;BME280;29067;35.492;-97.520;2022-08-21T11:39:36;97393.40;;;24.04;52.63
43480;BME280;29067;35.492;-97.520;2022-08-21T11:42:16;97397.02;;;24.46;51.92
43480;BME280;29067;35.492;-97.520;2022-08-21T11:44:55;97404.25;;;25.07;50.68
43480;BME280;29067;35.492;-97.520;2022-08-21T11:47:32;97417.59;;;22.98;54.25
43480;BME280;29067;35.492;-97.520;2022-08-21T11:50:09;97419.63;;;24.39;51.80
43480;BME280;29067;35.492;-97.520;2022-08-21T11:52:42;97421.78;;;24.57;51.27
43480;BME280;29067;35.492;-97.520;2022-08-21T11:55:18;97419.60;;;24.27;51.34
43480;BME280;29067;35.492;-97.520;2022-08-21T11:57:51;97421.07;;;25.34;50.81
43480;BME280;29067;35.492;-97.520;2022-08-21T12:00:25;97423.42;;;25.62;49.08
43480;BME280;29067;35.492;-97.520;2022-08-21T12:02:56;97425.16;;;24.62;51.00
43480;BME280;29067;35.492;-97.520;2022-08-21T12:05:30;97428.39;;;24.76;50.40
43480;BME280;29067;35.492;-97.520;2022-08-21T12:08:04;97433.27;;;22.14;54.79
43480;BME280;29067;35.492;-97.520;2022-08-21T12:10:35;97429.76;;;24.94;50.73
43480;BME280;29067;35.492;-97.520;2022-08-21T12:13:08;97429.15;;;26.01;49.77
43480;BME280;29067;35.492;-97.520;2022-08-21T12:15:37;97436.17;;;24.46;51.82
43480;BME280;29067;35.492;-97.520;2022-08-21T12:18:20;97437.36;;;25.14;51.31
43480;BME280;29067;35.492;-97.520;2022-08-21T12:21:00;97438.07;;;25.75;48.99
43480;BME280;29067;35.492;-97.520;2022-08-21T12:23:31;97440.48;;;25.58;49.24
43480;BME280;29067;35.492;-97.520;2022-08-21T12:26:09;97442.04;;;25.83;47.73
43480;BME280;29067;35.492;-97.520;2022-08-21T12:28:39;97441.23;;;25.93;47.88
43480;BME280;29067;35.492;-97.520;2022-08-21T12:31:19;97441.01;;;25.66;47.54
43480;BME280;29067;35.492;-97.520;2022-08-21T12:33:54;97444.13;;;26.15;46.94
43480;BME280;29067;35.492;-97.520;2022-08-21T12:36:26;97445.26;;;25.68;47.47
43480;BME280;29067;35.492;-97.520;2022-08-21T12:38:59;97449.28;;;26.40;47.07
43480;BME280;29067;35.492;-97.520;2022-08-21T12:41:31;97450.97;;;26.01;47.57
43480;BME280;29067;35.492;-97.520;2022-08-21T12:44:04;97446.91;;;27.07;46.53
43480;BME280;29067;35.492;-97.520;2022-08-21T12:46:36;97451.70;;;26.15;47.00
43480;BME280;29067;35.492;-97.520;2022-08-21T12:49:13;97455.96;;;25.69;47.47
43480;BME280;29067;35.492;-97.520;2022-08-21T12:51:50;97458.81;;;25.53;48.00
43480;BME280;29067;35.492;-97.520;2022-08-21T12:54:27;97461.40;;;26.72;47.01
43480;BME280;29067;35.492;-97.520;2022-08-21T12:56:59;97464.73;;;26.07;48.63
43480;BME280;29067;35.492;-97.520;2022-08-21T12:59:28;97468.40;;;25.48;48.86
43480;BME280;29067;35.492;-97.520;2022-08-21T13:01:59;97473.63;;;26.21;48.48